Time;durP1;ratioP1;P1;durP2;ratioP2;P2;SDS_P1;SDS_P2;PMS_P1;PMS_P2;Temp;Humidity;BMP_temperature;BMP_pressure;BME280_temperature;BME280_humidity;BME280_pressure;Samples;Min_cycle;Max_cycle;Signal;HPM_P1;HPM_P2
2023/12/17 00:00:18;;;;;;;1.92;1.30;;;20.20;53.40;;;;;;3110326;28;20056;-45
2023/12/17 00:01:49;;;;;;;1.48;1.30;;;20.30;53.50;;;;;;3109649;28;20050;-45
2023/12/17 00:03:20;;;;;;;1.65;1.13;;;20.20;53.40;;;;;;3109550;28;20050;-44
2023/12/17 00:04:52;;;;;;;1.30;1.20;;;20.20;53.50;;;;;;3109708;28;20053;-45
2023/12/17 00:06:24;;;;;;;1.95;1.30;;;20.30;53.30;;;;;;3108518;28;20046;-44
2023/12/17 00:07:54;;;;;;;1.30;1.20;;;20.40;53.10;;;;;;3108550;28;20056;-47
2023/12/17 00:09:26;;;;;;;1.77;1.30;;;20.40;52.80;;;;;;3109576;28;20473;-45
2023/12/17 00:10:57;;;;;;;1.55;1.20;;;20.30;53.20;;;;;;3109599;28;20397;-46
2023/12/17 00:12:29;;;;;;;1.48;1.27;;;20.20;53.30;;;;;;3108721;28;20538;-44
2023/12/17 00:14:00;;;;;;;1.95;1.20;;;20.30;53.00;;;;;;3109452;28;20054;-45
2023/12/17 00:15:31;;;;;;;1.33;1.20;;;20.20;53.10;;;;;;3111289;28;20042;-47
2023/12/17 00:17:02;;;;;;;1.20;1.00;;;20.10;53.40;;;;;;3111795;28;20056;-44
2023/12/17 00:18:34;;;;;;;1.45;1.00;;;20.20;53.20;;;;;;3111734;28;20096;-47
2023/12/17 00:20:08;;;;;;;1.23;1.10;;;20.10;53.20;;;;;;3111665;28;20050;-45
2023/12/17 00:21:39;;;;;;;1.83;1.30;;;20.20;53.10;;;;;;3111798;28;20048;-45
2023/12/17 00:23:10;;;;;;;1.20;1.10;;;20.10;53.20;;;;;;3111522;28;20053;-45
2023/12/17 00:24:42;;;;;;;1.58;1.13;;;20.10;53.40;;;;;;3110699;28;20045;-44
2023/12/17 00:26:13;;;;;;;1.40;1.00;;;20.10;53.20;;;;;;3111633;28;20058;-44
2023/12/17 00:27:44;;;;;;;1.80;1.20;;;20.20;53.10;;;;;;3111580;28;20045;-47
2023/12/17 00:29:15;;;;;;;1.50;1.20;;;20.10;53.10;;;;;;3110726;28;20050;-44
2023/12/17 00:30:46;;;;;;;1.42;1.13;;;20.10;53.10;;;;;;3111569;28;20041;-44
2023/12/17 00:32:18;;;;;;;1.05;0.95;;;20.10;53.10;;;;;;3111477;28;20184;-44
2023/12/17 00:33:48;;;;;;;1.30;1.10;;;20.00;53.20;;;;;;3111429;28;20050;-45
2023/12/17 00:35:22;;;;;;;1.95;1.13;;;19.90;53.40;;;;;;3111106;28;20053;-44
2023/12/17 00:36:53;;;;;;;1.40;1.00;;;20.20;53.00;;;;;;3111344;28;20500;-49
2023/12/17 00:38:24;;;;;;;2.72;1.10;;;20.20;52.90;;;;;;3111586;28;20053;-45
2023/12/17 00:39:56;;;;;;;1.52;1.13;;;20.10;52.90;;;;;;3111399;28;20050;-44
2023/12/17 00:41:26;;;;;;;0.90;0.90;;;20.20;52.80;;;;;;3111387;28;20042;-46
2023/12/17 00:42:58;;;;;;;1.33;1.02;;;20.20;52.80;;;;;;3111562;28;20050;-47
2023/12/17 00:44:29;;;;;;;1.35;1.00;;;20.10;52.80;;;;;;3111440;28;20045;-44
2023/12/17 00:46:00;;;;;;;1.35;1.17;;;20.10;53.00;;;;;;3111547;28;20072;-44
2023/12/17 00:47:31;;;;;;;1.30;1.05;;;20.10;52.90;;;;;;3110651;28;20061;-44
2023/12/17 00:49:03;;;;;;;1.45;1.10;;;20.10;52.70;;;;;;3111389;28;20046;-44
2023/12/17 00:50:35;;;;;;;1.35;1.10;;;20.10;52.70;;;;;;3111445;28;20046;-44
2023/12/17 00:52:06;;;;;;;0.98;0.90;;;20.10;52.60;;;;;;3111151;28;20050;-44
2023/12/17 00:53:37;;;;;;;1.30;1.00;;;20.00;52.90;;;;;;3108617;28;20041;-44
2023/12/17 00:55:09;;;;;;;1.10;1.00;;;20.00;52.70;;;;;;3111286;28;20046;-44
2023/12/17 00:56:40;;;;;;;1.42;1.08;;;20.10;52.60;;;;;;3109953;28;20080;-44
2023/12/17 00:58:11;;;;;;;1.20;1.10;;;20.20;52.50;;;;;;3110918;28;20041;-44
2023/12/17 00:59:42;;;;;;;1.50;1.00;;;20.20;52.20;;;;;;3110920;28;20042;-45
2023/12/17 01:01:13;;;;;;;1.05;0.95;;;20.10;52.50;;;;;;3108887;28;20046;-44
2023/12/17 01:02:45;;;;;;;1.15;0.90;;;20.10;52.40;;;;;;3111359;28;20050;-44
2023/12/17 01:04:17;;;;;;;1.33;1.00;;;20.10;52.40;;;;;;3111160;28;20046;-45
2023/12/17 01:05:49;;;;;;;1.10;1.00;;;20.30;51.90;;;;;;3109378;28;20100;-45
2023/12/17 01:07:20;;;;;;;1.13;0.88;;;20.40;51.60;;;;;;3111079;28;20049;-44
2023/12/17 01:08:51;;;;;;;1.25;1.10;;;20.40;51.80;;;;;;3111209;28;20054;-47
2023/12/17 01:10:23;;;;;;;1.60;1.00;;;20.30;51.70;;;;;;3111192;28;20049;-45
2023/12/17 01:11:54;;;;;;;2.08;1.00;;;20.30;51.50;;;;;;3110880;28;20045;-46
2023/12/17 01:13:26;;;;;;;1.08;1.00;;;20.20;52.00;;;;;;3111225;28;20706;-44
2023/12/17 01:14:57;;;;;;;1.20;0.90;;;20.10;52.40;;;;;;3110476;28;20058;-45
2023/12/17 01:16:28;;;;;;;0.95;0.82;;;19.90;52.50;;;;;;3110794;28;20404;-44
2023/12/17 01:17:59;;;;;;;1.13;0.98;;;20.00;52.40;;;;;;3110962;28;20078;-46
2023/12/17 01:19:31;;;;;;;1.58;1.13;;;20.10;52.40;;;;;;3110899;28;20042;-47
2023/12/17 01:21:03;;;;;;;1.23;0.90;;;20.10;52.20;;;;;;3110924;28;20060;-44
2023/12/17 01:22:34;;;;;;;0.70;0.70;;;19.90;52.40;;;;;;3110534;28;20108;-47
2023/12/17 01:24:05;;;;;;;0.98;0.90;;;19.90;52.60;;;;;;3107422;28;20085;-44
2023/12/17 01:25:37;;;;;;;1.05;0.93;;;19.80;52.60;;;;;;3110883;28;20042;-47
2023/12/17 01:27:08;;;;;;;1.00;0.90;;;19.80;53.20;;;;;;3109882;28;20085;-44
2023/12/17 01:28:39;;;;;;;0.75;0.75;;;20.20;52.00;;;;;;3111033;28;20053;-45
2023/12/17 01:30:10;;;;;;;1.20;0.88;;;20.00;52.00;;;;;;3111179;28;20088;-45
2023/12/17 01:31:42;;;;;;;0.85;0.77;;;19.90;52.30;;;;;;3110606;28;20147;-46
2023/12/17 01:33:13;;;;;;;1.25;0.88;;;20.00;52.30;;;;;;3110811;28;20081;-44
2023/12/17 01:34:44;;;;;;;1.05;0.88;;;19.90;52.40;;;;;;3110873;28;20397;-44
2023/12/17 01:36:16;;;;;;;1.25;1.00;;;19.90;52.50;;;;;;3110748;28;20077;-45
2023/12/17 01:37:48;;;;;;;1.10;0.85;;;20.00;52.30;;;;;;3110620;28;20141;-45
2023/12/17 01:39:19;;;;;;;1.42;0.82;;;20.10;52.00;;;;;;3110749;28;20081;-46
2023/12/17 01:40:50;;;;;;;1.45;0.90;;;20.00;51.80;;;;;;3111130;28;20041;-45
2023/12/17 01:42:21;;;;;;;1.20;0.80;;;19.90;52.70;;;;;;3110634;28;20478;-44
2023/12/17 01:43:53;;;;;;;0.80;0.80;;;19.90;52.10;;;;;;3110865;28;20053;-44
2023/12/17 01:45:23;;;;;;;1.13;0.80;;;19.80;52.50;;;;;;3110480;28;20149;-44
2023/12/17 01:46:55;;;;;;;0.88;0.80;;;19.60;52.80;;;;;;3110741;28;20500;-44
2023/12/17 01:48:26;;;;;;;1.00;0.90;;;19.60;52.90;;;;;;3110633;28;20073;-44
2023/12/17 01:49:57;;;;;;;1.02;0.65;;;19.50;53.20;;;;;;3110602;28;20056;-45
2023/12/17 01:51:31;;;;;;;1.08;0.93;;;19.70;52.80;;;;;;3110227;28;20081;-44
2023/12/17 01:53:02;;;;;;;1.27;0.90;;;19.70;52.60;;;;;;3110930;28;20516;-45
2023/12/17 01:54:34;;;;;;;1.10;0.90;;;19.60;52.80;;;;;;3110302;28;20078;-48
2023/12/17 01:56:07;;;;;;;1.48;0.90;;;19.70;53.30;;;;;;3110577;28;20481;-47
2023/12/17 01:57:38;;;;;;;0.98;0.90;;;19.60;52.60;;;;;;3110373;28;20084;-44
2023/12/17 01:59:09;;;;;;;1.15;0.70;;;19.60;52.80;;;;;;3110685;28;20061;-46
2023/12/17 02:00:40;;;;;;;0.70;0.70;;;19.70;52.50;;;;;;3110126;28;20045;-45
2023/12/17 02:02:11;;;;;;;0.90;0.80;;;19.70;52.50;;;;;;3109306;28;20377;-44
2023/12/17 02:03:43;;;;;;;1.15;0.75;;;19.50;52.60;;;;;;3109621;28;20081;-45
2023/12/17 02:05:15;;;;;;;1.00;0.63;;;19.50;52.80;;;;;;3108831;28;20052;-46
2023/12/17 02:06:50;;;;;;;1.65;0.90;;;19.60;52.80;;;;;;3109869;28;20111;-45
2023/12/17 02:08:22;;;;;;;1.15;0.80;;;19.50;52.90;;;;;;3109938;28;20448;-44
2023/12/17 02:09:52;;;;;;;1.02;0.90;;;19.50;52.90;;;;;;3110625;28;20081;-45
2023/12/17 02:11:24;;;;;;;1.13;0.88;;;19.50;52.70;;;;;;3109937;28;20740;-47
2023/12/17 02:12:55;;;;;;;0.80;0.80;;;19.50;52.60;;;;;;3109959;28;20078;-46
2023/12/17 02:14:26;;;;;;;0.50;0.50;;;19.50;52.80;;;;;;3110343;28;20053;-44
2023/12/17 02:15:57;;;;;;;1.58;0.88;;;19.50;52.80;;;;;;3110521;28;20054;-44
2023/12/17 02:17:29;;;;;;;1.00;0.70;;;19.50;52.60;;;;;;3109910;28;20520;-44
2023/12/17 02:19:01;;;;;;;0.75;0.75;;;19.40;52.80;;;;;;3110544;28;20389;-44
2023/12/17 02:20:34;;;;;;;0.93;0.70;;;19.30;53.00;;;;;;3110494;28;20046;-45
2023/12/17 02:22:06;;;;;;;0.93;0.70;;;19.30;53.10;;;;;;3110137;28;20104;-46
2023/12/17 02:23:39;;;;;;;1.10;1.00;;;19.40;53.10;;;;;;3110472;28;20088;-48
2023/12/17 02:25:09;;;;;;;1.40;0.90;;;19.50;52.80;;;;;;3110280;28;20054;-45
2023/12/17 02:26:41;;;;;;;0.75;0.60;;;19.40;52.60;;;;;;3110143;28;20393;-44
2023/12/17 02:28:12;;;;;;;0.60;0.60;;;19.40;52.70;;;;;;3109786;28;20053;-45
2023/12/17 02:29:44;;;;;;;0.70;0.70;;;19.40;52.60;;;;;;3109952;28;20419;-45
2023/12/17 02:31:14;;;;;;;1.15;0.70;;;19.40;52.60;;;;;;3110166;28;20839;-44
2023/12/17 02:32:46;;;;;;;0.70;0.70;;;19.40;52.60;;;;;;3110385;28;20041;-44
2023/12/17 02:34:17;;;;;;;0.82;0.70;;;19.40;52.80;;;;;;3110082;28;20060;-48
2023/12/17 02:35:49;;;;;;;1.23;0.80;;;19.40;52.70;;;;;;3110059;28;20056;-44
2023/12/17 02:37:19;;;;;;;0.70;0.68;;;19.30;52.60;;;;;;3109765;28;20054;-45
2023/12/17 02:38:52;;;;;;;2.47;0.70;;;19.30;52.80;;;;;;3108512;28;20528;-45
2023/12/17 02:40:23;;;;;;;0.90;0.80;;;19.30;53.00;;;;;;3110079;28;20061;-46
2023/12/17 02:41:54;;;;;;;1.85;0.80;;;19.30;53.70;;;;;;3109567;28;20042;-45
2023/12/17 02:43:25;;;;;;;1.20;0.80;;;19.20;52.90;;;;;;3109875;28;20068;-47
2023/12/17 02:44:57;;;;;;;0.80;0.70;;;19.10;53.20;;;;;;3109833;28;20042;-44
2023/12/17 02:46:28;;;;;;;1.05;0.80;;;19.20;53.10;;;;;;3109768;28;20428;-47
2023/12/17 02:47:59;;;;;;;0.80;0.80;;;19.10;53.20;;;;;;3110052;28;20049;-44
2023/12/17 02:49:31;;;;;;;0.77;0.70;;;19.10;53.10;;;;;;3108472;28;20041;-47
2023/12/17 02:51:03;;;;;;;0.73;0.73;;;19.10;53.20;;;;;;3110100;28;20077;-44
2023/12/17 02:52:34;;;;;;;0.70;0.70;;;19.10;53.20;;;;;;3109848;28;20076;-44
2023/12/17 02:54:07;;;;;;;0.90;0.70;;;19.10;53.10;;;;;;3109861;28;20049;-44
2023/12/17 02:55:37;;;;;;;0.90;0.77;;;19.10;53.20;;;;;;3109427;28;20046;-46
2023/12/17 02:57:09;;;;;;;0.82;0.70;;;19.00;53.30;;;;;;3109606;28;20061;-46
2023/12/17 02:58:40;;;;;;;1.02;0.80;;;19.00;53.40;;;;;;3109636;28;20050;-47
2023/12/17 03:00:12;;;;;;;1.20;0.73;;;19.10;53.20;;;;;;3110257;28;20057;-44
2023/12/17 03:01:43;;;;;;;0.77;0.68;;;19.00;53.30;;;;;;3109745;28;20050;-44
2023/12/17 03:03:15;;;;;;;1.40;0.82;;;19.00;53.30;;;;;;3109558;28;20046;-45
2023/12/17 03:04:45;;;;;;;1.02;0.80;;;19.10;53.00;;;;;;3109675;28;20068;-44
2023/12/17 03:06:17;;;;;;;0.88;0.80;;;19.10;52.90;;;;;;3109704;28;20049;-45
2023/12/17 03:07:48;;;;;;;1.10;0.63;;;19.00;53.10;;;;;;3109393;28;20061;-45
2023/12/17 03:09:21;;;;;;;1.17;0.70;;;19.00;53.20;;;;;;3108966;28;20049;-44
2023/12/17 03:10:52;;;;;;;0.93;0.75;;;19.00;53.10;;;;;;3108800;28;20056;-47
2023/12/17 03:12:24;;;;;;;0.70;0.70;;;19.00;53.00;;;;;;3110819;28;20412;-44
2023/12/17 03:13:54;;;;;;;1.00;0.70;;;19.10;53.10;;;;;;3108375;28;20684;-47
2023/12/17 03:15:26;;;;;;;0.90;0.75;;;19.20;52.70;;;;;;3109095;28;20049;-44
2023/12/17 03:16:57;;;;;;;0.65;0.65;;;19.10;52.80;;;;;;3109619;28;20049;-46
2023/12/17 03:18:28;;;;;;;0.80;0.70;;;19.10;52.90;;;;;;3109997;28;20052;-44
2023/12/17 03:19:59;;;;;;;0.73;0.73;;;19.10;52.90;;;;;;3109540;28;20053;-44
2023/12/17 03:21:30;;;;;;;0.70;0.70;;;19.00;52.80;;;;;;3109680;28;20046;-48
2023/12/17 03:23:01;;;;;;;0.70;0.70;;;19.00;53.00;;;;;;3110133;28;20097;-45
2023/12/17 03:24:34;;;;;;;0.90;0.68;;;19.00;53.00;;;;;;3109595;28;20050;-45
2023/12/17 03:26:05;;;;;;;1.00;0.73;;;19.00;52.90;;;;;;3109757;28;20045;-46
2023/12/17 03:27:36;;;;;;;0.90;0.80;;;18.90;53.00;;;;;;3109207;28;20120;-44
2023/12/17 03:29:07;;;;;;;0.98;0.70;;;18.90;52.90;;;;;;3110134;28;20045;-45
2023/12/17 03:30:39;;;;;;;1.10;0.80;;;19.00;52.80;;;;;;3109679;28;20050;-44
2023/12/17 03:32:09;;;;;;;1.20;0.70;;;19.10;52.80;;;;;;3109731;28;20057;-44
2023/12/17 03:33:41;;;;;;;1.55;0.80;;;19.00;52.60;;;;;;3109596;28;20045;-45
2023/12/17 03:35:12;;;;;;;0.95;0.70;;;19.00;52.90;;;;;;3109832;28;20050;-44
2023/12/17 03:36:43;;;;;;;0.75;0.70;;;18.90;53.00;;;;;;3109197;28;20046;-44
2023/12/17 03:38:14;;;;;;;0.77;0.75;;;18.80;53.10;;;;;;3109467;28;20053;-44
2023/12/17 03:39:48;;;;;;;0.70;0.70;;;19.00;52.90;;;;;;3109661;28;20042;-44
2023/12/17 03:41:20;;;;;;;0.82;0.68;;;18.90;52.90;;;;;;3109115;28;20059;-44
2023/12/17 03:42:52;;;;;;;0.68;0.52;;;18.80;53.10;;;;;;3109602;28;20042;-45
2023/12/17 03:44:22;;;;;;;1.10;0.80;;;18.80;53.00;;;;;;3109608;28;20054;-49
2023/12/17 03:45:54;;;;;;;0.70;0.70;;;18.80;52.80;;;;;;3109676;28;20049;-44
2023/12/17 03:47:25;;;;;;;1.45;0.70;;;18.80;53.00;;;;;;3109381;28;20492;-47
2023/12/17 03:48:57;;;;;;;0.70;0.68;;;18.80;53.10;;;;;;3109687;28;20045;-47
2023/12/17 03:50:27;;;;;;;0.98;0.80;;;18.70;53.20;;;;;;3111276;28;20057;-44
2023/12/17 03:51:59;;;;;;;1.05;0.70;;;18.80;53.10;;;;;;3111877;28;20050;-46
2023/12/17 03:53:30;;;;;;;0.95;0.70;;;19.00;52.80;;;;;;3111827;28;20053;-44
2023/12/17 03:55:02;;;;;;;1.23;0.55;;;18.80;52.80;;;;;;3112002;28;20496;-44
2023/12/17 03:56:33;;;;;;;1.15;0.80;;;18.80;53.10;;;;;;3111915;28;20116;-44
2023/12/17 03:58:05;;;;;;;0.60;0.60;;;18.70;53.30;;;;;;3111770;28;20042;-44
2023/12/17 03:59:37;;;;;;;1.45;0.65;;;18.80;53.10;;;;;;3111109;28;20050;-44
2023/12/17 04:01:08;;;;;;;0.82;0.70;;;19.30;52.30;;;;;;3112110;28;20056;-44
2023/12/17 04:02:39;;;;;;;0.60;0.60;;;19.70;51.30;;;;;;3111828;28;20037;-44
2023/12/17 04:04:10;;;;;;;0.80;0.60;;;20.10;50.40;;;;;;3111674;28;20046;-46
2023/12/17 04:05:44;;;;;;;0.70;0.70;;;20.50;49.50;;;;;;3111754;28;20038;-45
2023/12/17 04:07:15;;;;;;;1.30;0.70;;;20.70;49.10;;;;;;3110169;28;20050;-44
2023/12/17 04:08:47;;;;;;;1.80;0.60;;;20.80;48.80;;;;;;3112163;28;20407;-46
2023/12/17 04:10:19;;;;;;;1.05;0.70;;;20.90;48.60;;;;;;3112015;28;20057;-44
2023/12/17 04:11:51;;;;;;;1.60;0.77;;;21.10;48.30;;;;;;3111554;28;20053;-44
2023/12/17 04:13:21;;;;;;;1.27;0.65;;;21.20;48.10;;;;;;3110305;28;20616;-44
2023/12/17 04:14:53;;;;;;;0.77;0.60;;;21.30;47.80;;;;;;3112044;28;20176;-46
2023/12/17 04:16:24;;;;;;;0.70;0.68;;;21.40;47.90;;;;;;3108924;28;20046;-46
2023/12/17 04:17:55;;;;;;;0.73;0.60;;;21.30;47.90;;;;;;3111572;28;20488;-44
2023/12/17 04:19:26;;;;;;;0.70;0.60;;;21.30;48.00;;;;;;3111903;28;20092;-44
2023/12/17 04:20:58;;;;;;;0.88;0.70;;;21.30;48.10;;;;;;3111821;28;20045;-45
2023/12/17 04:22:28;;;;;;;0.57;0.57;;;21.40;48.10;;;;;;3111565;28;20056;-44
2023/12/17 04:24:00;;;;;;;0.52;0.50;;;21.50;48.00;;;;;;3111702;28;20076;-45
2023/12/17 04:25:32;;;;;;;0.55;0.55;;;21.60;48.00;;;;;;3111718;28;20096;-46
2023/12/17 04:27:04;;;;;;;0.95;0.60;;;21.60;48.00;;;;;;3111522;28;20494;-44
2023/12/17 04:28:35;;;;;;;0.95;0.70;;;21.70;48.10;;;;;;3111580;28;20045;-44
2023/12/17 04:30:07;;;;;;;0.68;0.47;;;21.70;48.10;;;;;;3111856;28;20180;-45
2023/12/17 04:31:38;;;;;;;;;;;21.80;48.00;;;;;;3111258;28;20042;-45
2023/12/17 04:33:10;;;;;;;0.60;0.47;;;21.80;48.00;;;;;;3111760;28;19926;-44
2023/12/17 04:34:40;;;;;;;0.77;0.50;;;21.90;48.00;;;;;;3111486;28;20057;-44
2023/12/17 04:36:12;;;;;;;0.40;0.40;;;21.90;47.80;;;;;;3111666;28;20078;-46
2023/12/17 04:37:43;;;;;;;0.70;0.60;;;21.90;47.70;;;;;;3111467;28;20041;-46
2023/12/17 04:39:14;;;;;;;0.85;0.60;;;21.90;47.90;;;;;;3111695;28;20041;-47
2023/12/17 04:40:46;;;;;;;0.68;0.65;;;22.00;47.80;;;;;;3111684;28;20049;-47
2023/12/17 04:42:18;;;;;;;0.50;0.50;;;22.00;47.70;;;;;;3111520;28;20575;-47
2023/12/17 04:43:49;;;;;;;0.57;0.52;;;22.10;47.60;;;;;;3111760;28;20049;-46
2023/12/17 04:45:20;;;;;;;0.65;0.55;;;22.10;47.60;;;;;;3111374;28;20412;-47
2023/12/17 04:46:51;;;;;;;0.95;0.60;;;22.10;47.60;;;;;;3111491;28;20050;-47
2023/12/17 04:48:22;;;;;;;0.77;0.65;;;22.00;47.80;;;;;;3111416;28;20053;-47
2023/12/17 04:49:53;;;;;;;0.40;0.40;;;22.00;48.00;;;;;;3110655;28;20052;-46
2023/12/17 04:51:25;;;;;;;0.82;0.60;;;22.10;48.10;;;;;;3111260;28;20492;-45
2023/12/17 04:52:55;;;;;;;0.73;0.70;;;22.10;48.00;;;;;;3111360;28;20049;-46
2023/12/17 04:54:27;;;;;;;0.50;0.50;;;22.20;48.10;;;;;;3111505;28;20121;-47
2023/12/17 04:55:59;;;;;;;0.63;0.52;;;22.30;48.00;;;;;;3111548;28;20050;-47
2023/12/17 04:57:31;;;;;;;1.40;0.60;;;22.40;47.90;;;;;;3111047;28;20053;-50
2023/12/17 04:59:01;;;;;;;1.40;0.63;;;22.40;47.90;;;;;;3111176;28;20057;-45
2023/12/17 05:00:33;;;;;;;0.60;0.50;;;22.40;47.90;;;;;;3111535;28;20046;-47
2023/12/17 05:02:06;;;;;;;0.40;0.40;;;22.40;47.80;;;;;;3109897;28;20408;-44
2023/12/17 05:03:38;;;;;;;0.73;0.63;;;22.50;47.80;;;;;;3111056;28;20054;-49
2023/12/17 05:05:09;;;;;;;0.75;0.50;;;22.50;47.90;;;;;;3111234;28;20088;-45
2023/12/17 05:06:40;;;;;;;1.30;0.50;;;22.50;47.80;;;;;;3111015;28;20038;-45
2023/12/17 05:08:11;;;;;;;0.63;0.50;;;22.60;47.80;;;;;;3111123;28;20054;-47
2023/12/17 05:09:43;;;;;;;0.63;0.50;;;22.60;47.80;;;;;;3111354;28;20057;-45
2023/12/17 05:11:15;;;;;;;0.50;0.50;;;22.70;47.80;;;;;;3111388;28;20141;-45
2023/12/17 05:12:46;;;;;;;0.52;0.47;;;22.70;47.70;;;;;;3110786;28;20046;-47
2023/12/17 05:14:18;;;;;;;0.80;0.60;;;22.70;47.60;;;;;;3111180;28;20049;-46
2023/12/17 05:15:49;;;;;;;1.75;0.50;;;22.80;47.50;;;;;;3109348;28;20065;-47
2023/12/17 05:17:20;;;;;;;0.88;0.68;;;22.80;47.50;;;;;;3110679;28;20681;-45
2023/12/17 05:18:51;;;;;;;0.80;0.60;;;22.80;47.40;;;;;;3111030;28;20519;-46
2023/12/17 05:20:23;;;;;;;0.93;0.60;;;22.80;47.50;;;;;;3110780;28;20045;-47
2023/12/17 05:21:53;;;;;;;0.80;0.63;;;22.80;47.60;;;;;;3110512;28;20053;-46
2023/12/17 05:23:25;;;;;;;0.95;0.50;;;22.80;47.60;;;;;;3111107;28;20046;-44
2023/12/17 05:24:56;;;;;;;0.60;0.50;;;22.80;47.50;;;;;;3110984;28;20045;-45
2023/12/17 05:26:29;;;;;;;0.40;0.40;;;22.80;47.60;;;;;;3108459;28;20038;-45
2023/12/17 05:27:59;;;;;;;0.60;0.60;;;22.80;47.60;;;;;;3110720;28;20500;-44
2023/12/17 05:29:31;;;;;;;1.05;0.75;;;22.80;47.60;;;;;;3110809;28;20061;-47
2023/12/17 05:31:01;;;;;;;0.45;0.40;;;22.90;47.60;;;;;;3111078;28;20054;-47
2023/12/17 05:32:33;;;;;;;0.80;0.55;;;22.90;47.70;;;;;;3110791;28;20049;-47
2023/12/17 05:34:08;;;;;;;0.98;0.60;;;22.80;47.80;;;;;;3110936;28;20045;-46
2023/12/17 05:35:41;;;;;;;0.88;0.60;;;22.90;48.00;;;;;;3109711;28;20046;-45
2023/12/17 05:37:12;;;;;;;0.57;0.50;;;22.90;48.00;;;;;;3110611;28;20407;-47
2023/12/17 05:38:45;;;;;;;0.82;0.70;;;22.90;48.00;;;;;;3110776;28;20042;-44
2023/12/17 05:40:17;;;;;;;0.93;0.63;;;22.90;48.00;;;;;;3111048;28;20472;-47
2023/12/17 05:41:49;;;;;;;0.65;0.50;;;22.90;48.00;;;;;;3110228;28;20050;-44
2023/12/17 05:43:21;;;;;;;0.50;0.50;;;23.00;48.00;;;;;;3110407;28;20432;-46
2023/12/17 05:44:51;;;;;;;1.00;0.55;;;23.00;48.00;;;;;;3110449;28;20061;-44
2023/12/17 05:46:23;;;;;;;0.73;0.50;;;23.10;48.00;;;;;;3110430;28;20536;-44
2023/12/17 05:47:55;;;;;;;0.57;0.50;;;23.10;48.00;;;;;;3110486;28;20061;-45
2023/12/17 05:49:26;;;;;;;0.80;0.50;;;23.10;47.90;;;;;;3110532;28;20496;-47
2023/12/17 05:50:57;;;;;;;0.63;0.55;;;23.20;47.90;;;;;;3110599;28;20054;-46
2023/12/17 05:52:28;;;;;;;0.60;0.47;;;23.10;47.80;;;;;;3109401;28;20424;-47
2023/12/17 05:54:00;;;;;;;0.77;0.60;;;23.20;47.80;;;;;;3110160;28;20057;-47
2023/12/17 05:55:30;;;;;;;0.73;0.45;;;23.30;47.80;;;;;;3109793;28;20053;-47
2023/12/17 05:57:04;;;;;;;0.63;0.52;;;23.30;47.60;;;;;;3110441;28;20058;-47
2023/12/17 05:58:35;;;;;;;0.60;0.60;;;23.30;47.70;;;;;;3110674;28;20488;-47
2023/12/17 06:00:08;;;;;;;0.52;0.52;;;23.20;48.10;;;;;;3110631;28;20057;-46
2023/12/17 06:01:39;;;;;;;1.20;0.50;;;23.20;48.40;;;;;;3110340;28;20552;-45
2023/12/17 06:03:10;;;;;;;4.13;0.70;;;23.10;48.60;;;;;;3110776;28;20046;-48
2023/12/17 06:04:41;;;;;;;1.15;0.60;;;22.90;49.10;;;;;;3110282;28;20052;-48
2023/12/17 06:06:15;;;;;;;1.30;0.73;;;22.90;49.20;;;;;;3110622;28;20071;-45
2023/12/17 06:07:45;;;;;;;2.38;0.60;;;23.00;49.40;;;;;;3109997;28;20078;-47
2023/12/17 06:09:17;;;;;;;0.50;0.50;;;22.90;49.60;;;;;;3110773;28;20503;-44
2023/12/17 06:10:48;;;;;;;4.65;1.13;;;22.80;49.80;;;;;;3110628;28;20064;-46
2023/12/17 06:12:21;;;;;;;1.65;0.70;;;22.70;50.20;;;;;;3110309;28;20049;-44
2023/12/17 06:13:52;;;;;;;0.88;0.60;;;22.70;50.30;;;;;;3106950;28;20454;-47
2023/12/17 06:15:23;;;;;;;8.45;0.70;;;22.70;50.30;;;;;;3110306;28;20175;-47
2023/12/17 06:16:55;;;;;;;1.60;0.60;;;22.60;50.50;;;;;;3110294;28;20054;-45
2023/12/17 06:18:25;;;;;;;0.52;0.52;;;22.60;50.60;;;;;;3109596;28;20060;-47
2023/12/17 06:19:57;;;;;;;5.35;0.85;;;22.60;50.90;;;;;;3110245;28;20053;-47
2023/12/17 06:21:28;;;;;;;5.43;0.70;;;22.80;50.40;;;;;;3110303;28;20050;-46
2023/12/17 06:22:59;;;;;;;1.40;0.60;;;22.90;49.80;;;;;;3110244;28;20041;-48
2023/12/17 06:24:30;;;;;;;2.70;0.70;;;23.00;49.50;;;;;;3110287;28;20058;-50
2023/12/17 06:26:04;;;;;;;2.38;0.88;;;23.10;49.20;;;;;;3110506;28;20042;-48
2023/12/17 06:27:37;;;;;;;2.53;0.50;;;23.10;49.00;;;;;;3109611;28;20132;-47
2023/12/17 06:29:12;;;;;;;1.75;0.63;;;23.10;49.00;;;;;;3109510;28;20057;-46
2023/12/17 06:30:44;;;;;;;1.42;0.75;;;23.10;48.90;;;;;;3110364;28;20450;-47
2023/12/17 06:32:15;;;;;;;1.55;0.60;;;23.00;49.00;;;;;;3110394;28;20046;-49
2023/12/17 06:33:46;;;;;;;1.63;0.50;;;23.00;49.00;;;;;;3110075;28;20068;-48
2023/12/17 06:35:17;;;;;;;1.13;0.60;;;22.90;49.00;;;;;;3107031;28;20057;-47
2023/12/17 06:36:48;;;;;;;0.68;0.60;;;22.90;49.20;;;;;;3110236;28;20061;-45
2023/12/17 06:38:19;;;;;;;2.25;0.80;;;22.90;49.30;;;;;;3109265;28;20060;-48
2023/12/17 06:39:51;;;;;;;1.23;0.60;;;22.90;49.50;;;;;;3108882;28;20523;-46
2023/12/17 06:41:21;;;;;;;2.85;0.70;;;23.00;49.30;;;;;;3109248;28;20054;-45
2023/12/17 06:42:54;;;;;;;0.73;0.60;;;23.10;49.10;;;;;;3110308;28;20053;-47
2023/12/17 06:44:25;;;;;;;4.00;0.80;;;23.30;49.00;;;;;;3109310;28;20054;-47
2023/12/17 06:45:56;;;;;;;1.77;0.50;;;23.30;48.90;;;;;;3109975;28;20056;-48
2023/12/17 06:47:27;;;;;;;1.13;0.60;;;23.40;48.80;;;;;;3109857;28;20109;-47
2023/12/17 06:48:59;;;;;;;2.85;0.50;;;23.40;48.70;;;;;;3110238;28;20054;-46
2023/12/17 06:50:29;;;;;;;1.00;0.50;;;23.60;48.30;;;;;;3109981;28;20532;-50
2023/12/17 06:52:01;;;;;;;2.17;0.50;;;23.60;48.30;;;;;;3109818;28;20049;-46
2023/12/17 06:53:32;;;;;;;1.40;0.60;;;23.70;49.00;;;;;;3109825;28;20053;-45
2023/12/17 06:55:04;;;;;;;1.35;0.43;;;23.60;48.30;;;;;;3108434;28;20094;-48
2023/12/17 06:56:35;;;;;;;0.57;0.50;;;23.60;48.30;;;;;;3107987;28;20138;-45
2023/12/17 06:58:08;;;;;;;0.98;0.40;;;23.70;48.40;;;;;;3108709;28;20066;-47
2023/12/17 06:59:38;;;;;;;4.20;0.60;;;23.70;48.40;;;;;;3108882;28;20484;-45
2023/12/17 07:01:10;;;;;;;1.23;0.52;;;23.70;48.40;;;;;;3108501;28;20041;-47
2023/12/17 07:02:41;;;;;;;0.40;0.40;;;23.60;48.40;;;;;;3109923;28;20415;-45
2023/12/17 07:04:13;;;;;;;3.33;0.55;;;23.60;48.30;;;;;;3106831;28;20517;-47
2023/12/17 07:05:44;;;;;;;1.48;0.57;;;23.70;48.40;;;;;;3108913;28;20054;-44
2023/12/17 07:07:15;;;;;;;1.85;0.60;;;23.70;48.40;;;;;;3108974;28;20424;-46
2023/12/17 07:08:48;;;;;;;5.18;0.57;;;23.70;48.40;;;;;;3109889;28;20061;-47
2023/12/17 07:10:20;;;;;;;3.33;0.57;;;23.60;48.30;;;;;;3109985;28;20049;-48
2023/12/17 07:11:51;;;;;;;3.42;0.70;;;23.60;48.30;;;;;;3109833;28;20088;-45
2023/12/17 07:13:24;;;;;;;0.98;0.60;;;23.60;48.30;;;;;;3109049;28;20049;-46
2023/12/17 07:14:55;;;;;;;1.25;0.50;;;23.70;48.40;;;;;;3109554;28;20050;-44
2023/12/17 07:16:28;;;;;;;4.53;0.70;;;23.70;48.30;;;;;;3107521;28;20393;-47
2023/12/17 07:17:58;;;;;;;4.80;0.60;;;23.70;48.40;;;;;;3109572;28;20057;-47
2023/12/17 07:19:31;;;;;;;0.90;0.60;;;23.80;48.50;;;;;;3109784;28;20068;-47
2023/12/17 07:21:02;;;;;;;1.33;0.50;;;23.80;48.40;;;;;;3107969;28;20420;-48
2023/12/17 07:22:33;;;;;;;1.48;0.60;;;23.80;48.40;;;;;;3105550;28;20092;-47
2023/12/17 07:24:05;;;;;;;1.42;0.70;;;23.80;48.50;;;;;;3109074;28;20480;-47
2023/12/17 07:25:37;;;;;;;1.80;0.50;;;23.70;48.60;;;;;;3107762;28;20050;-48
2023/12/17 07:27:07;;;;;;;1.17;0.52;;;23.70;48.70;;;;;;3107149;28;20788;-49
2023/12/17 07:28:40;;;;;;;1.48;0.65;;;23.70;48.70;;;;;;3106370;28;20050;-47
2023/12/17 07:30:12;;;;;;;5.03;0.70;;;23.70;48.90;;;;;;3107726;28;20054;-49
2023/12/17 07:31:43;;;;;;;6.38;2.78;;;23.60;49.20;;;;;;3106988;28;20072;-47
2023/12/17 07:33:14;;;;;;;18.35;8.00;;;23.70;49.10;;;;;;3109350;28;20050;-46
2023/12/17 07:34:46;;;;;;;46.80;20.50;;;23.80;48.90;;;;;;3109580;28;20041;-47
2023/12/17 07:36:16;;;;;;;97.25;39.65;;;23.80;48.90;;;;;;3109932;28;20476;-47
2023/12/17 07:37:48;;;;;;;126.57;46.13;;;23.80;48.80;;;;;;3109525;28;20053;-49
2023/12/17 07:39:19;;;;;;;108.72;41.05;;;23.90;48.90;;;;;;3109110;28;20050;-47
2023/12/17 07:40:50;;;;;;;86.53;35.40;;;24.00;48.50;;;;;;3107517;28;20613;-46
2023/12/17 07:42:21;;;;;;;83.53;33.55;;;24.20;48.10;;;;;;3109223;28;20057;-46
2023/12/17 07:43:54;;;;;;;75.03;32.33;;;24.20;48.40;;;;;;3107421;28;20435;-47
2023/12/17 07:45:24;;;;;;;69.80;29.38;;;24.30;47.70;;;;;;3106121;28;20050;-44
2023/12/17 07:46:56;;;;;;;61.10;26.83;;;24.30;47.50;;;;;;3103846;28;20057;-47
2023/12/17 07:48:27;;;;;;;54.95;24.20;;;24.40;47.40;;;;;;3109284;28;20496;-48
2023/12/17 07:49:58;;;;;;;52.03;22.60;;;24.40;47.20;;;;;;3108495;28;20046;-46
2023/12/17 07:51:31;;;;;;;41.13;20.10;;;24.40;47.00;;;;;;3108696;28;20061;-47
2023/12/17 07:53:01;;;;;;;43.03;17.95;;;24.40;46.30;;;;;;3108942;28;20069;-47
2023/12/17 07:54:33;;;;;;;42.72;17.17;;;24.40;46.20;;;;;;3107593;28;20739;-49